sensor_id;sensor_type;location;lat;lon;timestamp;P1;durP1;ratioP1;P2;durP2;ratioP2
52838;SDS011;39219;53.678;9.856;2024-03-02T00:01:17;23.88;;;12.93;;
52838;SDS011;39219;53.678;9.856;2024-03-02T00:03:44;23.17;;;12.43;;
52838;SDS011;39219;53.678;9.856;2024-03-02T00:06:11;22.33;;;11.77;;
52838;SDS011;39219;53.678;9.856;2024-03-02T00:08:38;25.48;;;12.63;;
52838;SDS011;39219;53.678;9.856;2024-03-02T00:11:04;25.67;;;13.18;;
52838;SDS011;39219;53.678;9.856;2024-03-02T00:13:30;25.58;;;12.82;;
52838;SDS011;39219;53.678;9.856;2024-03-02T00:15:58;25.98;;;12.90;;
52838;SDS011;39219;53.678;9.856;2024-03-02T00:18:25;23.38;;;13.23;;
52838;SDS011;39219;53.678;9.856;2024-03-02T00:20:54;25.65;;;12.93;;
52838;SDS011;39219;53.678;9.856;2024-03-02T00:23:22;26.55;;;13.48;;
52838;SDS011;39219;53.678;9.856;2024-03-02T00:25:49;26.45;;;13.52;;
52838;SDS011;39219;53.678;9.856;2024-03-02T00:28:19;23.20;;;12.23;;
52838;SDS011;39219;53.678;9.856;2024-03-02T00:30:57;25.67;;;13.13;;
52838;SDS011;39219;53.678;9.856;2024-03-02T00:33:26;25.25;;;13.07;;
52838;SDS011;39219;53.678;9.856;2024-03-02T00:35:55;26.35;;;13.55;;
52838;SDS011;39219;53.678;9.856;2024-03-02T00:38:22;25.27;;;13.07;;
52838;SDS011;39219;53.678;9.856;2024-03-02T00:40:49;25.05;;;12.98;;
52838;SDS011;39219;53.678;9.856;2024-03-02T00:46:10;25.55;;;13.60;;
52838;SDS011;39219;53.678;9.856;2024-03-02T00:48:39;25.00;;;13.00;;
52838;SDS011;39219;53.678;9.856;2024-03-02T00:51:11;25.70;;;13.20;;
52838;SDS011;39219;53.678;9.856;2024-03-02T00:53:38;24.63;;;12.93;;
52838;SDS011;39219;53.678;9.856;2024-03-02T00:56:05;26.98;;;13.93;;
52838;SDS011;39219;53.678;9.856;2024-03-02T00:58:36;24.90;;;13.23;;
52838;SDS011;39219;53.678;9.856;2024-03-02T01:01:03;25.80;;;13.70;;
52838;SDS011;39219;53.678;9.856;2024-03-02T01:03:29;24.35;;;12.98;;
52838;SDS011;39219;53.678;9.856;2024-03-02T01:05:57;24.63;;;12.93;;
52838;SDS011;39219;53.678;9.856;2024-03-02T01:08:25;23.83;;;13.30;;
52838;SDS011;39219;53.678;9.856;2024-03-02T01:10:51;26.80;;;13.73;;
52838;SDS011;39219;53.678;9.856;2024-03-02T01:13:18;25.63;;;13.50;;
52838;SDS011;39219;53.678;9.856;2024-03-02T01:15:44;24.00;;;13.27;;
52838;SDS011;39219;53.678;9.856;2024-03-02T01:18:11;26.88;;;14.18;;
52838;SDS011;39219;53.678;9.856;2024-03-02T01:20:37;25.42;;;13.68;;
52838;SDS011;39219;53.678;9.856;2024-03-02T01:23:04;27.10;;;13.25;;
52838;SDS011;39219;53.678;9.856;2024-03-02T01:25:32;26.17;;;13.98;;
52838;SDS011;39219;53.678;9.856;2024-03-02T01:27:58;27.52;;;13.88;;
52838;SDS011;39219;53.678;9.856;2024-03-02T01:30:25;28.15;;;14.50;;
52838;SDS011;39219;53.678;9.856;2024-03-02T01:32:51;26.17;;;13.43;;
52838;SDS011;39219;53.678;9.856;2024-03-02T01:35:18;25.60;;;14.27;;
52838;SDS011;39219;53.678;9.856;2024-03-02T01:37:44;27.52;;;14.65;;
52838;SDS011;39219;53.678;9.856;2024-03-02T01:40:11;27.85;;;14.43;;
52838;SDS011;39219;53.678;9.856;2024-03-02T01:42:39;32.22;;;15.50;;
52838;SDS011;39219;53.678;9.856;2024-03-02T01:45:06;31.33;;;15.30;;
52838;SDS011;39219;53.678;9.856;2024-03-02T01:47:34;30.52;;;15.68;;
52838;SDS011;39219;53.678;9.856;2024-03-02T01:50:00;30.98;;;16.25;;
52838;SDS011;39219;53.678;9.856;2024-03-02T01:52:27;33.47;;;16.38;;
52838;SDS011;39219;53.678;9.856;2024-03-02T01:54:54;31.42;;;16.08;;
52838;SDS011;39219;53.678;9.856;2024-03-02T01:57:21;31.05;;;15.75;;
52838;SDS011;39219;53.678;9.856;2024-03-02T01:59:48;34.13;;;16.75;;
52838;SDS011;39219;53.678;9.856;2024-03-02T02:02:15;36.22;;;17.70;;
52838;SDS011;39219;53.678;9.856;2024-03-02T02:04:42;35.92;;;17.55;;
52838;SDS011;39219;53.678;9.856;2024-03-02T02:07:09;35.08;;;17.42;;
52838;SDS011;39219;53.678;9.856;2024-03-02T02:09:36;38.70;;;18.20;;
52838;SDS011;39219;53.678;9.856;2024-03-02T02:12:03;36.30;;;18.15;;
52838;SDS011;39219;53.678;9.856;2024-03-02T02:14:31;37.58;;;18.73;;
52838;SDS011;39219;53.678;9.856;2024-03-02T02:16:59;41.08;;;19.52;;
52838;SDS011;39219;53.678;9.856;2024-03-02T02:19:26;37.70;;;18.67;;
52838;SDS011;39219;53.678;9.856;2024-03-02T02:21:54;35.75;;;18.48;;
52838;SDS011;39219;53.678;9.856;2024-03-02T02:24:20;39.83;;;18.70;;
52838;SDS011;39219;53.678;9.856;2024-03-02T02:26:46;41.05;;;19.58;;
52838;SDS011;39219;53.678;9.856;2024-03-02T02:29:13;38.75;;;18.60;;
52838;SDS011;39219;53.678;9.856;2024-03-02T02:31:40;42.30;;;18.58;;
52838;SDS011;39219;53.678;9.856;2024-03-02T02:34:06;43.72;;;20.10;;
52838;SDS011;39219;53.678;9.856;2024-03-02T02:36:34;41.47;;;21.08;;
52838;SDS011;39219;53.678;9.856;2024-03-02T02:39:04;41.15;;;19.40;;
52838;SDS011;39219;53.678;9.856;2024-03-02T02:41:33;40.28;;;20.20;;
52838;SDS011;39219;53.678;9.856;2024-03-02T02:44:00;44.03;;;20.80;;
52838;SDS011;39219;53.678;9.856;2024-03-02T02:46:26;43.75;;;20.63;;
52838;SDS011;39219;53.678;9.856;2024-03-02T02:48:53;44.65;;;21.02;;
52838;SDS011;39219;53.678;9.856;2024-03-02T02:51:19;45.20;;;21.10;;
52838;SDS011;39219;53.678;9.856;2024-03-02T02:53:46;41.40;;;20.02;;
52838;SDS011;39219;53.678;9.856;2024-03-02T02:56:13;47.30;;;21.98;;
52838;SDS011;39219;53.678;9.856;2024-03-02T02:58:40;48.22;;;22.20;;
52838;SDS011;39219;53.678;9.856;2024-03-02T03:01:06;46.20;;;21.30;;
52838;SDS011;39219;53.678;9.856;2024-03-02T03:03:33;45.38;;;21.92;;
52838;SDS011;39219;53.678;9.856;2024-03-02T03:06:00;45.97;;;21.45;;
52838;SDS011;39219;53.678;9.856;2024-03-02T03:08:27;46.78;;;21.92;;
52838;SDS011;39219;53.678;9.856;2024-03-02T03:10:53;50.17;;;22.77;;
52838;SDS011;39219;53.678;9.856;2024-03-02T03:13:21;48.95;;;23.52;;
52838;SDS011;39219;53.678;9.856;2024-03-02T03:15:48;48.60;;;22.73;;
52838;SDS011;39219;53.678;9.856;2024-03-02T03:18:14;45.55;;;21.67;;
52838;SDS011;39219;53.678;9.856;2024-03-02T03:20:41;46.60;;;22.17;;
52838;SDS011;39219;53.678;9.856;2024-03-02T03:23:07;46.28;;;21.90;;
52838;SDS011;39219;53.678;9.856;2024-03-02T03:25:33;43.80;;;21.15;;
52838;SDS011;39219;53.678;9.856;2024-03-02T03:28:00;49.67;;;23.63;;
52838;SDS011;39219;53.678;9.856;2024-03-02T03:30:29;54.83;;;23.83;;
52838;SDS011;39219;53.678;9.856;2024-03-02T03:32:56;46.83;;;23.15;;
52838;SDS011;39219;53.678;9.856;2024-03-02T03:35:22;47.67;;;22.90;;
52838;SDS011;39219;53.678;9.856;2024-03-02T03:37:48;45.60;;;21.92;;
52838;SDS011;39219;53.678;9.856;2024-03-02T03:40:15;46.17;;;21.60;;
52838;SDS011;39219;53.678;9.856;2024-03-02T03:42:43;49.80;;;22.73;;
52838;SDS011;39219;53.678;9.856;2024-03-02T03:45:09;49.15;;;22.38;;
52838;SDS011;39219;53.678;9.856;2024-03-02T03:47:37;48.78;;;22.58;;
52838;SDS011;39219;53.678;9.856;2024-03-02T03:50:04;48.70;;;22.77;;
52838;SDS011;39219;53.678;9.856;2024-03-02T03:52:32;47.90;;;22.25;;
52838;SDS011;39219;53.678;9.856;2024-03-02T03:54:58;46.50;;;22.20;;
52838;SDS011;39219;53.678;9.856;2024-03-02T03:57:25;47.78;;;22.85;;
52838;SDS011;39219;53.678;9.856;2024-03-02T03:59:51;49.17;;;22.88;;
52838;SDS011;39219;53.678;9.856;2024-03-02T04:02:18;45.55;;;22.45;;
52838;SDS011;39219;53.678;9.856;2024-03-02T04:04:46;47.40;;;21.80;;
52838;SDS011;39219;53.678;9.856;2024-03-02T04:07:12;45.05;;;21.65;;
52838;SDS011;39219;53.678;9.856;2024-03-02T04:09:38;48.10;;;22.67;;
52838;SDS011;39219;53.678;9.856;2024-03-02T04:12:05;46.42;;;22.50;;
52838;SDS011;39219;53.678;9.856;2024-03-02T04:14:31;48.97;;;22.42;;
52838;SDS011;39219;53.678;9.856;2024-03-02T04:16:58;44.28;;;21.30;;
52838;SDS011;39219;53.678;9.856;2024-03-02T04:19:25;45.40;;;21.75;;
52838;SDS011;39219;53.678;9.856;2024-03-02T04:21:53;47.03;;;22.63;;
52838;SDS011;39219;53.678;9.856;2024-03-02T04:24:19;44.85;;;21.77;;
52838;SDS011;39219;53.678;9.856;2024-03-02T04:26:46;45.58;;;21.52;;
52838;SDS011;39219;53.678;9.856;2024-03-02T04:29:12;48.10;;;21.75;;
52838;SDS011;39219;53.678;9.856;2024-03-02T04:31:39;47.75;;;22.70;;
52838;SDS011;39219;53.678;9.856;2024-03-02T04:34:05;45.35;;;20.90;;
52838;SDS011;39219;53.678;9.856;2024-03-02T04:36:31;47.58;;;21.15;;
52838;SDS011;39219;53.678;9.856;2024-03-02T04:38:59;45.65;;;21.92;;
52838;SDS011;39219;53.678;9.856;2024-03-02T04:41:26;45.83;;;21.02;;
52838;SDS011;39219;53.678;9.856;2024-03-02T04:43:52;44.50;;;21.25;;
52838;SDS011;39219;53.678;9.856;2024-03-02T04:46:19;48.17;;;20.92;;
52838;SDS011;39219;53.678;9.856;2024-03-02T04:48:45;43.83;;;21.65;;
52838;SDS011;39219;53.678;9.856;2024-03-02T04:51:13;42.00;;;21.00;;
52838;SDS011;39219;53.678;9.856;2024-03-02T04:53:40;42.05;;;20.52;;
52838;SDS011;39219;53.678;9.856;2024-03-02T04:56:07;46.72;;;22.10;;
52838;SDS011;39219;53.678;9.856;2024-03-02T04:59:04;44.70;;;21.58;;
52838;SDS011;39219;53.678;9.856;2024-03-02T05:01:31;40.55;;;20.10;;
52838;SDS011;39219;53.678;9.856;2024-03-02T05:03:57;44.40;;;21.00;;
52838;SDS011;39219;53.678;9.856;2024-03-02T05:06:24;44.67;;;21.77;;
52838;SDS011;39219;53.678;9.856;2024-03-02T05:08:50;43.60;;;21.48;;
52838;SDS011;39219;53.678;9.856;2024-03-02T05:11:18;44.00;;;20.90;;
52838;SDS011;39219;53.678;9.856;2024-03-02T05:14:02;44.03;;;22.45;;
52838;SDS011;39219;53.678;9.856;2024-03-02T05:16:28;41.35;;;20.20;;
52838;SDS011;39219;53.678;9.856;2024-03-02T05:18:55;39.72;;;19.83;;
52838;SDS011;39219;53.678;9.856;2024-03-02T05:21:21;43.92;;;20.55;;
52838;SDS011;39219;53.678;9.856;2024-03-02T05:23:48;40.13;;;19.42;;
52838;SDS011;39219;53.678;9.856;2024-03-02T05:26:14;40.78;;;20.15;;
52838;SDS011;39219;53.678;9.856;2024-03-02T05:28:43;40.65;;;20.25;;
52838;SDS011;39219;53.678;9.856;2024-03-02T05:31:09;41.88;;;20.13;;
52838;SDS011;39219;53.678;9.856;2024-03-02T05:33:37;40.45;;;21.02;;
52838;SDS011;39219;53.678;9.856;2024-03-02T05:36:04;41.15;;;20.50;;
52838;SDS011;39219;53.678;9.856;2024-03-02T05:38:31;43.55;;;20.20;;
52838;SDS011;39219;53.678;9.856;2024-03-02T05:40:57;38.65;;;19.80;;
52838;SDS011;39219;53.678;9.856;2024-03-02T05:43:23;43.72;;;21.40;;
52838;SDS011;39219;53.678;9.856;2024-03-02T05:45:51;41.80;;;20.50;;
52838;SDS011;39219;53.678;9.856;2024-03-02T05:48:18;40.58;;;20.75;;
52838;SDS011;39219;53.678;9.856;2024-03-02T05:50:44;45.22;;;21.00;;
52838;SDS011;39219;53.678;9.856;2024-03-02T05:53:11;39.40;;;20.50;;
52838;SDS011;39219;53.678;9.856;2024-03-02T05:55:37;41.15;;;21.08;;
52838;SDS011;39219;53.678;9.856;2024-03-02T05:58:03;42.13;;;19.95;;
52838;SDS011;39219;53.678;9.856;2024-03-02T06:00:47;40.03;;;20.52;;
52838;SDS011;39219;53.678;9.856;2024-03-02T06:03:15;42.88;;;20.88;;
52838;SDS011;39219;53.678;9.856;2024-03-02T06:05:41;38.78;;;19.70;;
52838;SDS011;39219;53.678;9.856;2024-03-02T06:08:08;42.42;;;20.73;;
52838;SDS011;39219;53.678;9.856;2024-03-02T06:10:34;41.65;;;19.80;;
52838;SDS011;39219;53.678;9.856;2024-03-02T06:13:01;43.35;;;21.13;;
52838;SDS011;39219;53.678;9.856;2024-03-02T06:15:27;43.97;;;20.77;;
52838;SDS011;39219;53.678;9.856;2024-03-02T06:17:54;41.58;;;19.55;;
52838;SDS011;39219;53.678;9.856;2024-03-02T06:20:21;41.00;;;21.30;;
52838;SDS011;39219;53.678;9.856;2024-03-02T06:22:48;42.83;;;20.63;;
52838;SDS011;39219;53.678;9.856;2024-03-02T06:25:14;38.47;;;19.65;;
52838;SDS011;39219;53.678;9.856;2024-03-02T06:27:41;41.60;;;19.73;;
52838;SDS011;39219;53.678;9.856;2024-03-02T06:30:08;40.20;;;19.48;;
52838;SDS011;39219;53.678;9.856;2024-03-02T06:32:35;41.00;;;18.67;;
52838;SDS011;39219;53.678;9.856;2024-03-02T06:35:01;40.47;;;19.95;;
52838;SDS011;39219;53.678;9.856;2024-03-02T06:37:30;41.03;;;19.08;;
52838;SDS011;39219;53.678;9.856;2024-03-02T06:39:56;40.15;;;19.75;;
52838;SDS011;39219;53.678;9.856;2024-03-02T06:42:23;39.78;;;18.73;;
52838;SDS011;39219;53.678;9.856;2024-03-02T06:44:50;40.75;;;19.33;;
52838;SDS011;39219;53.678;9.856;2024-03-02T06:47:16;41.05;;;19.45;;
52838;SDS011;39219;53.678;9.856;2024-03-02T06:49:43;40.88;;;19.55;;
52838;SDS011;39219;53.678;9.856;2024-03-02T06:52:09;38.60;;;19.27;;
52838;SDS011;39219;53.678;9.856;2024-03-02T06:54:37;38.55;;;19.52;;
52838;SDS011;39219;53.678;9.856;2024-03-02T06:57:04;37.30;;;19.10;;
52838;SDS011;39219;53.678;9.856;2024-03-02T06:59:30;39.53;;;20.20;;
52838;SDS011;39219;53.678;9.856;2024-03-02T07:01:58;40.67;;;19.88;;
52838;SDS011;39219;53.678;9.856;2024-03-02T07:04:25;37.30;;;18.90;;
52838;SDS011;39219;53.678;9.856;2024-03-02T07:06:51;37.63;;;18.75;;
52838;SDS011;39219;53.678;9.856;2024-03-02T07:09:17;38.05;;;19.35;;
52838;SDS011;39219;53.678;9.856;2024-03-02T07:11:49;39.63;;;19.10;;
52838;SDS011;39219;53.678;9.856;2024-03-02T07:14:15;38.28;;;18.83;;
52838;SDS011;39219;53.678;9.856;2024-03-02T07:16:41;38.75;;;18.83;;
52838;SDS011;39219;53.678;9.856;2024-03-02T07:19:08;37.78;;;18.35;;
52838;SDS011;39219;53.678;9.856;2024-03-02T07:21:35;40.85;;;19.05;;
52838;SDS011;39219;53.678;9.856;2024-03-02T07:24:01;37.00;;;19.10;;
52838;SDS011;39219;53.678;9.856;2024-03-02T07:26:29;40.38;;;20.33;;
52838;SDS011;39219;53.678;9.856;2024-03-02T07:28:57;37.15;;;18.95;;
52838;SDS011;39219;53.678;9.856;2024-03-02T07:31:24;36.17;;;18.77;;
52838;SDS011;39219;53.678;9.856;2024-03-02T07:33:51;38.92;;;19.13;;
52838;SDS011;39219;53.678;9.856;2024-03-02T07:36:17;37.80;;;18.35;;
52838;SDS011;39219;53.678;9.856;2024-03-02T07:38:44;38.45;;;18.48;;
52838;SDS011;39219;53.678;9.856;2024-03-02T07:41:11;37.00;;;17.67;;
52838;SDS011;39219;53.678;9.856;2024-03-02T07:43:38;36.50;;;18.15;;
52838;SDS011;39219;53.678;9.856;2024-03-02T07:46:06;36.75;;;18.60;;
52838;SDS011;39219;53.678;9.856;2024-03-02T07:48:32;36.03;;;18.55;;
52838;SDS011;39219;53.678;9.856;2024-03-02T07:50:59;35.45;;;17.30;;
52838;SDS011;39219;53.678;9.856;2024-03-02T07:53:27;35.13;;;18.13;;
52838;SDS011;39219;53.678;9.856;2024-03-02T07:55:53;31.55;;;16.67;;
52838;SDS011;39219;53.678;9.856;2024-03-02T07:58:22;33.88;;;17.25;;
52838;SDS011;39219;53.678;9.856;2024-03-02T08:00:48;35.95;;;17.17;;
52838;SDS011;39219;53.678;9.856;2024-03-02T08:03:16;34.88;;;17.05;;
52838;SDS011;39219;53.678;9.856;2024-03-02T08:05:42;32.17;;;16.98;;
52838;SDS011;39219;53.678;9.856;2024-03-02T08:08:11;34.03;;;17.05;;
52838;SDS011;39219;53.678;9.856;2024-03-02T08:10:37;31.92;;;17.00;;
52838;SDS011;39219;53.678;9.856;2024-03-02T08:13:04;32.72;;;16.85;;
52838;SDS011;39219;53.678;9.856;2024-03-02T08:15:30;33.40;;;17.13;;
52838;SDS011;39219;53.678;9.856;2024-03-02T08:17:57;32.53;;;16.65;;
52838;SDS011;39219;53.678;9.856;2024-03-02T08:20:24;33.85;;;17.25;;
52838;SDS011;39219;53.678;9.856;2024-03-02T08:22:51;31.45;;;16.67;;
52838;SDS011;39219;53.678;9.856;2024-03-02T08:25:20;33.13;;;16.23;;
52838;SDS011;39219;53.678;9.856;2024-03-02T08:27:46;29.88;;;15.18;;
52838;SDS011;39219;53.678;9.856;2024-03-02T08:30:13;33.47;;;16.23;;
52838;SDS011;39219;53.678;9.856;2024-03-02T08:32:40;30.67;;;15.75;;
52838;SDS011;39219;53.678;9.856;2024-03-02T08:35:06;29.15;;;15.48;;
52838;SDS011;39219;53.678;9.856;2024-03-02T08:37:34;31.65;;;16.20;;
52838;SDS011;39219;53.678;9.856;2024-03-02T08:40:03;32.08;;;16.25;;
52838;SDS011;39219;53.678;9.856;2024-03-02T08:42:32;32.65;;;16.65;;
52838;SDS011;39219;53.678;9.856;2024-03-02T08:44:58;31.20;;;16.27;;
52838;SDS011;39219;53.678;9.856;2024-03-02T08:47:26;31.00;;;16.58;;
52838;SDS011;39219;53.678;9.856;2024-03-02T08:49:52;31.52;;;16.15;;
52838;SDS011;39219;53.678;9.856;2024-03-02T08:52:19;30.42;;;15.65;;
52838;SDS011;39219;53.678;9.856;2024-03-02T08:54:47;31.58;;;15.20;;
52838;SDS011;39219;53.678;9.856;2024-03-02T08:57:13;31.42;;;15.32;;
52838;SDS011;39219;53.678;9.856;2024-03-02T08:59:40;29.15;;;15.13;;
52838;SDS011;39219;53.678;9.856;2024-03-02T09:02:06;27.50;;;14.88;;
52838;SDS011;39219;53.678;9.856;2024-03-02T09:04:33;31.48;;;15.88;;
52838;SDS011;39219;53.678;9.856;2024-03-02T09:06:59;29.15;;;14.95;;
52838;SDS011;39219;53.678;9.856;2024-03-02T09:09:26;30.67;;;15.40;;
52838;SDS011;39219;53.678;9.856;2024-03-02T09:11:53;27.80;;;14.65;;
52838;SDS011;39219;53.678;9.856;2024-03-02T09:14:22;28.48;;;14.93;;
52838;SDS011;39219;53.678;9.856;2024-03-02T09:16:49;28.63;;;15.02;;
52838;SDS011;39219;53.678;9.856;2024-03-02T09:19:15;28.23;;;15.13;;
52838;SDS011;39219;53.678;9.856;2024-03-02T09:21:42;27.15;;;14.38;;
52838;SDS011;39219;53.678;9.856;2024-03-02T09:24:09;27.48;;;14.48;;
52838;SDS011;39219;53.678;9.856;2024-03-02T09:26:35;26.17;;;13.85;;
52838;SDS011;39219;53.678;9.856;2024-03-02T09:29:03;27.80;;;14.77;;
52838;SDS011;39219;53.678;9.856;2024-03-02T09:31:29;27.50;;;14.40;;
52838;SDS011;39219;53.678;9.856;2024-03-02T09:33:56;26.70;;;14.00;;
52838;SDS011;39219;53.678;9.856;2024-03-02T09:36:22;26.35;;;14.13;;
52838;SDS011;39219;53.678;9.856;2024-03-02T09:38:49;25.13;;;13.50;;
52838;SDS011;39219;53.678;9.856;2024-03-02T09:41:15;25.08;;;14.10;;
52838;SDS011;39219;53.678;9.856;2024-03-02T09:43:42;24.13;;;13.60;;
52838;SDS011;39219;53.678;9.856;2024-03-02T09:46:09;25.17;;;14.10;;
52838;SDS011;39219;53.678;9.856;2024-03-02T09:48:37;23.73;;;12.80;;
52838;SDS011;39219;53.678;9.856;2024-03-02T09:51:04;26.30;;;14.10;;
52838;SDS011;39219;53.678;9.856;2024-03-02T09:53:31;24.67;;;12.73;;
52838;SDS011;39219;53.678;9.856;2024-03-02T09:55:59;22.00;;;12.45;;
52838;SDS011;39219;53.678;9.856;2024-03-02T09:58:26;23.95;;;13.02;;
52838;SDS011;39219;53.678;9.856;2024-03-02T10:00:52;24.05;;;12.52;;
52838;SDS011;39219;53.678;9.856;2024-03-02T10:03:20;24.80;;;13.10;;
52838;SDS011;39219;53.678;9.856;2024-03-02T10:05:49;24.65;;;13.60;;
52838;SDS011;39219;53.678;9.856;2024-03-02T10:08:16;24.45;;;13.00;;
52838;SDS011;39219;53.678;9.856;2024-03-02T10:10:43;21.73;;;12.73;;
52838;SDS011;39219;53.678;9.856;2024-03-02T10:13:10;24.48;;;12.68;;
52838;SDS011;39219;53.678;9.856;2024-03-02T10:15:38;20.38;;;11.55;;
52838;SDS011;39219;53.678;9.856;2024-03-02T10:18:07;20.98;;;11.63;;
52838;SDS011;39219;53.678;9.856;2024-03-02T10:20:37;22.35;;;12.43;;
52838;SDS011;39219;53.678;9.856;2024-03-02T10:23:10;22.50;;;12.32;;
52838;SDS011;39219;53.678;9.856;2024-03-02T10:25:37;21.63;;;11.73;;
52838;SDS011;39219;53.678;9.856;2024-03-02T10:28:04;21.45;;;12.05;;
52838;SDS011;39219;53.678;9.856;2024-03-02T10:30:31;22.30;;;12.27;;
52838;SDS011;39219;53.678;9.856;2024-03-02T10:32:58;22.70;;;12.13;;
52838;SDS011;39219;53.678;9.856;2024-03-02T10:35:25;22.73;;;12.85;;
52838;SDS011;39219;53.678;9.856;2024-03-02T10:37:53;21.70;;;12.18;;
52838;SDS011;39219;53.678;9.856;2024-03-02T10:40:21;20.15;;;11.68;;
52838;SDS011;39219;53.678;9.856;2024-03-02T10:42:48;20.00;;;11.30;;
52838;SDS011;39219;53.678;9.856;2024-03-02T10:45:16;19.95;;;10.88;;
52838;SDS011;39219;53.678;9.856;2024-03-02T10:47:43;22.85;;;12.23;;
52838;SDS011;39219;53.678;9.856;2024-03-02T10:50:09;19.70;;;11.63;;
52838;SDS011;39219;53.678;9.856;2024-03-02T10:52:36;22.33;;;12.15;;
52838;SDS011;39219;53.678;9.856;2024-03-02T10:55:06;23.73;;;11.73;;
52838;SDS011;39219;53.678;9.856;2024-03-02T10:57:36;19.25;;;11.23;;
52838;SDS011;39219;53.678;9.856;2024-03-02T11:00:08;20.48;;;11.40;;
52838;SDS011;39219;53.678;9.856;2024-03-02T11:02:40;19.38;;;10.90;;
52838;SDS011;39219;53.678;9.856;2024-03-02T11:05:13;19.70;;;10.80;;
52838;SDS011;39219;53.678;9.856;2024-03-02T11:07:46;19.60;;;11.50;;
52838;SDS011;39219;53.678;9.856;2024-03-02T11:10:15;21.92;;;11.65;;
52838;SDS011;39219;53.678;9.856;2024-03-02T11:12:45;19.73;;;10.65;;
52838;SDS011;39219;53.678;9.856;2024-03-02T11:15:17;21.08;;;10.98;;
52838;SDS011;39219;53.678;9.856;2024-03-02T11:17:44;21.65;;;11.25;;
52838;SDS011;39219;53.678;9.856;2024-03-02T11:20:12;18.67;;;10.82;;
52838;SDS011;39219;53.678;9.856;2024-03-02T11:22:40;19.38;;;10.75;;
52838;SDS011;39219;53.678;9.856;2024-03-02T11:25:22;18.83;;;10.30;;
52838;SDS011;39219;53.678;9.856;2024-03-02T11:27:59;18.52;;;10.93;;
52838;SDS011;39219;53.678;9.856;2024-03-02T11:33:24;19.25;;;10.15;;
52838;SDS011;39219;53.678;9.856;2024-03-02T11:35:52;17.23;;;9.70;;
52838;SDS011;39219;53.678;9.856;2024-03-02T11:38:19;19.77;;;9.95;;
52838;SDS011;39219;53.678;9.856;2024-03-02T11:40:47;17.77;;;9.45;;
52838;SDS011;39219;53.678;9.856;2024-03-02T11:43:13;16.58;;;9.40;;
52838;SDS011;39219;53.678;9.856;2024-03-02T11:45:41;17.80;;;9.80;;
52838;SDS011;39219;53.678;9.856;2024-03-02T11:48:10;16.42;;;9.00;;
52838;SDS011;39219;53.678;9.856;2024-03-02T11:50:40;17.42;;;9.15;;
52838;SDS011;39219;53.678;9.856;2024-03-02T11:53:09;14.93;;;8.10;;
52838;SDS011;39219;53.678;9.856;2024-03-02T11:55:37;15.60;;;8.50;;
52838;SDS011;39219;53.678;9.856;2024-03-02T11:58:07;16.20;;;8.88;;
52838;SDS011;39219;53.678;9.856;2024-03-02T12:00:33;17.52;;;9.35;;
52838;SDS011;39219;53.678;9.856;2024-03-02T12:03:00;17.23;;;9.60;;
52838;SDS011;39219;53.678;9.856;2024-03-02T12:05:26;16.90;;;9.35;;
52838;SDS011;39219;53.678;9.856;2024-03-02T12:07:55;17.05;;;9.45;;
52838;SDS011;39219;53.678;9.856;2024-03-02T12:10:22;15.45;;;8.23;;
52838;SDS011;39219;53.678;9.856;2024-03-02T12:12:54;15.68;;;9.13;;
52838;SDS011;39219;53.678;9.856;2024-03-02T12:15:24;17.10;;;9.05;;
52838;SDS011;39219;53.678;9.856;2024-03-02T12:17:54;15.68;;;8.18;;
52838;SDS011;39219;53.678;9.856;2024-03-02T12:20:22;13.52;;;7.43;;
52838;SDS011;39219;53.678;9.856;2024-03-02T12:22:49;17.58;;;8.80;;
52838;SDS011;39219;53.678;9.856;2024-03-02T12:25:17;16.13;;;8.77;;
52838;SDS011;39219;53.678;9.856;2024-03-02T12:27:44;14.93;;;7.82;;
52838;SDS011;39219;53.678;9.856;2024-03-02T12:30:11;14.05;;;7.70;;
52838;SDS011;39219;53.678;9.856;2024-03-02T12:32:40;15.88;;;7.93;;
52838;SDS011;39219;53.678;9.856;2024-03-02T12:35:07;16.85;;;9.02;;
52838;SDS011;39219;53.678;9.856;2024-03-02T12:37:41;16.20;;;7.90;;
52838;SDS011;39219;53.678;9.856;2024-03-02T12:40:09;12.52;;;7.47;;
52838;SDS011;39219;53.678;9.856;2024-03-02T12:42:36;13.30;;;7.35;;
52838;SDS011;39219;53.678;9.856;2024-03-02T12:45:03;17.38;;;9.98;;
52838;SDS011;39219;53.678;9.856;2024-03-02T12:47:30;20.42;;;11.15;;
52838;SDS011;39219;53.678;9.856;2024-03-02T12:49:58;14.35;;;7.50;;
52838;SDS011;39219;53.678;9.856;2024-03-02T12:52:24;13.50;;;7.00;;
52838;SDS011;39219;53.678;9.856;2024-03-02T12:54:51;12.93;;;7.07;;
52838;SDS011;39219;53.678;9.856;2024-03-02T12:57:24;13.25;;;7.70;;
52838;SDS011;39219;53.678;9.856;2024-03-02T12:59:51;11.82;;;6.78;;
52838;SDS011;39219;53.678;9.856;2024-03-02T13:02:18;13.18;;;7.28;;
52838;SDS011;39219;53.678;9.856;2024-03-02T13:04:44;12.60;;;6.75;;
52838;SDS011;39219;53.678;9.856;2024-03-02T13:07:20;12.68;;;6.78;;
52838;SDS011;39219;53.678;9.856;2024-03-02T13:09:47;11.95;;;6.32;;
52838;SDS011;39219;53.678;9.856;2024-03-02T13:12:14;13.43;;;6.57;;
52838;SDS011;39219;53.678;9.856;2024-03-02T13:14:41;11.50;;;6.35;;
52838;SDS011;39219;53.678;9.856;2024-03-02T13:17:08;12.43;;;6.50;;
52838;SDS011;39219;53.678;9.856;2024-03-02T13:19:34;12.13;;;6.30;;
52838;SDS011;39219;53.678;9.856;2024-03-02T13:22:01;12.50;;;6.20;;
52838;SDS011;39219;53.678;9.856;2024-03-02T13:24:30;11.35;;;6.55;;
52838;SDS011;39219;53.678;9.856;2024-03-02T13:26:56;11.50;;;6.10;;
52838;SDS011;39219;53.678;9.856;2024-03-02T13:29:23;12.23;;;6.38;;
52838;SDS011;39219;53.678;9.856;2024-03-02T13:31:50;13.00;;;6.68;;
52838;SDS011;39219;53.678;9.856;2024-03-02T13:34:17;11.45;;;6.60;;
52838;SDS011;39219;53.678;9.856;2024-03-02T13:36:44;11.43;;;6.22;;
52838;SDS011;39219;53.678;9.856;2024-03-02T13:39:10;10.88;;;6.00;;
52838;SDS011;39219;53.678;9.856;2024-03-02T13:41:41;11.18;;;6.50;;
52838;SDS011;39219;53.678;9.856;2024-03-02T13:44:16;12.57;;;6.80;;
52838;SDS011;39219;53.678;9.856;2024-03-02T13:46:43;11.77;;;6.57;;
52838;SDS011;39219;53.678;9.856;2024-03-02T13:49:10;11.63;;;6.22;;
52838;SDS011;39219;53.678;9.856;2024-03-02T13:51:37;14.00;;;6.97;;
52838;SDS011;39219;53.678;9.856;2024-03-02T13:54:03;10.93;;;6.18;;
52838;SDS011;39219;53.678;9.856;2024-03-02T13:56:30;10.88;;;6.75;;
52838;SDS011;39219;53.678;9.856;2024-03-02T13:58:59;11.43;;;6.80;;
52838;SDS011;39219;53.678;9.856;2024-03-02T14:01:25;11.80;;;6.47;;
52838;SDS011;39219;53.678;9.856;2024-03-02T14:03:52;12.35;;;6.72;;
52838;SDS011;39219;53.678;9.856;2024-03-02T14:06:19;12.82;;;6.82;;
52838;SDS011;39219;53.678;9.856;2024-03-02T14:08:46;12.48;;;6.53;;
52838;SDS011;39219;53.678;9.856;2024-03-02T14:11:13;11.68;;;6.63;;
52838;SDS011;39219;53.678;9.856;2024-03-02T14:13:41;13.00;;;6.70;;
52838;SDS011;39219;53.678;9.856;2024-03-02T14:16:10;11.93;;;6.53;;
52838;SDS011;39219;53.678;9.856;2024-03-02T14:18:37;13.82;;;6.63;;
52838;SDS011;39219;53.678;9.856;2024-03-02T14:21:03;11.35;;;6.40;;
52838;SDS011;39219;53.678;9.856;2024-03-02T14:23:30;12.00;;;6.60;;
52838;SDS011;39219;53.678;9.856;2024-03-02T14:25:56;13.25;;;7.25;;
52838;SDS011;39219;53.678;9.856;2024-03-02T14:28:24;13.38;;;7.35;;
52838;SDS011;39219;53.678;9.856;2024-03-02T14:30:50;15.40;;;7.78;;